createdAt,value
2022-09-14T00:01:27.050Z,100740.63
2022-09-14T00:03:56.619Z,100743.63
2022-09-14T00:06:24.874Z,100744.44
2022-09-14T00:08:54.128Z,100740.38
2022-09-14T00:11:24.202Z,100749.66
2022-09-14T00:13:52.137Z,100746.38
2022-09-14T00:16:23.614Z,100746.16
2022-09-14T00:18:52.969Z,100743.41
2022-09-14T00:21:21.482Z,100747.25
2022-09-14T00:23:49.183Z,100746.72
2022-09-14T00:26:19.779Z,100744.28
2022-09-14T00:28:49.354Z,100743.75
2022-09-14T00:31:18.091Z,100739.41
2022-09-14T00:33:48.933Z,100738.59
2022-09-14T00:36:18.682Z,100736.44
2022-09-14T00:38:46.729Z,100732.09
2022-09-14T00:41:16.861Z,100726.63
2022-09-14T00:43:57.047Z,100710.31
2022-09-14T00:46:25.999Z,100710.31
2022-09-14T00:48:57.251Z,100699.16
2022-09-14T00:51:25.762Z,100693.41
2022-09-14T00:53:53.639Z,100694.50
2022-09-14T00:56:21.386Z,100687.72
2022-09-14T00:58:52.241Z,100683.66
2022-09-14T01:01:20.479Z,100684.22
2022-09-14T01:03:48.669Z,100690.25
2022-09-14T01:06:26.233Z,100685.91
2022-09-14T01:09:06.122Z,100676.91
2022-09-14T01:11:56.587Z,100680.75
2022-09-14T01:14:31.886Z,100678.31
2022-09-14T01:17:05.606Z,100679.69
2022-09-14T01:19:47.591Z,100670.69
2022-09-14T01:22:22.352Z,100667.44
2022-09-14T01:24:55.322Z,100675.91
2022-09-14T01:27:28.458Z,100675.38
2022-09-14T01:30:05.672Z,100680.03
2022-09-14T01:32:40.169Z,100682.22
2022-09-14T01:35:15.973Z,100677.06
2022-09-14T01:37:48.486Z,100681.69
2022-09-14T01:40:21.924Z,100674.63
2022-09-14T01:42:54.231Z,100680.38
2022-09-14T01:45:24.594Z,100669.47
2022-09-14T01:47:55.928Z,100672.47
2022-09-14T01:50:27.538Z,100671.66
2022-09-14T01:52:59.543Z,100671.66
2022-09-14T01:55:31.256Z,100676.28
2022-09-14T01:58:06.447Z,100674.69
2022-09-14T02:00:36.513Z,100671.13
2022-09-14T02:03:10.887Z,100673.03
2022-09-14T02:05:44.199Z,100662.44
2022-09-14T02:08:11.901Z,100662.72
2022-09-14T02:10:40.515Z,100658.34
2022-09-14T02:13:09.938Z,100658.66
2022-09-14T02:15:38.361Z,100661.38
2022-09-14T02:18:06.701Z,100655.38
2022-09-14T02:20:40.358Z,100664.66
2022-09-14T02:23:08.179Z,100659.50
2022-09-14T02:25:37.252Z,100669.59
2022-09-14T02:28:05.404Z,100674.25
2022-09-14T02:30:44.126Z,100675.63
2022-09-14T02:33:19.688Z,100674.00
2022-09-14T02:35:53.228Z,100670.47
2022-09-14T02:38:28.108Z,100677.81
2022-09-14T02:40:58.888Z,100674.28
2022-09-14T02:43:40.010Z,100671.03
2022-09-14T02:46:17.117Z,100660.41
2022-09-14T02:48:53.215Z,100657.69
2022-09-14T02:51:28.897Z,100662.59
2022-09-14T02:54:02.765Z,100661.78
2022-09-14T02:56:30.850Z,100653.91
2022-09-14T02:58:58.538Z,100649.56
2022-09-14T03:01:27.999Z,100650.63
2022-09-14T03:03:55.966Z,100641.38
2022-09-14T03:06:24.108Z,100643.00
2022-09-14T03:08:51.910Z,100645.75
2022-09-14T03:11:19.594Z,100635.94
2022-09-14T03:13:47.275Z,100638.66
2022-09-14T03:16:17.867Z,100635.13
2022-09-14T03:18:47.000Z,100638.13
2022-09-14T03:21:17.371Z,100635.69
2022-09-14T03:23:46.654Z,100632.16
2022-09-14T03:26:16.582Z,100627.81
2022-09-14T03:28:44.499Z,100623.16
2022-09-14T03:31:13.487Z,100617.72
2022-09-14T03:33:41.940Z,100619.09
2022-09-14T03:36:16.868Z,100618.28
2022-09-14T03:38:45.601Z,100612.03
2022-09-14T03:41:14.166Z,100600.31
2022-09-14T03:43:42.176Z,100605.22
2022-09-14T03:46:11.819Z,100600.88
2022-09-14T03:48:39.762Z,100586.72
2022-09-14T03:51:09.353Z,100586.72
2022-09-14T03:53:39.019Z,100587.81
2022-09-14T03:56:08.301Z,100582.66
2022-09-14T03:58:35.998Z,100585.38
2022-09-14T04:01:07.995Z,100586.47
2022-09-14T04:03:35.762Z,100584.84
2022-09-14T04:06:05.292Z,100586.78
2022-09-14T04:08:33.629Z,100580.50
2022-09-14T04:11:08.005Z,100583.53
2022-09-14T04:13:36.115Z,100581.09
2022-09-14T04:16:04.251Z,100577.81
2022-09-14T04:18:32.196Z,100580.03
2022-09-14T04:21:07.297Z,100581.13
2022-09-14T04:23:51.326Z,100581.94
2022-09-14T04:26:27.986Z,100579.50
2022-09-14T04:28:56.609Z,100578.16
2022-09-14T04:31:25.212Z,100587.44
2022-09-14T04:33:56.322Z,100578.72
2022-09-14T04:36:28.266Z,100572.47
2022-09-14T04:38:57.591Z,100571.13
2022-09-14T04:41:27.550Z,100573.03
2022-09-14T04:43:56.959Z,100570.31
2022-09-14T04:46:27.013Z,100561.63
2022-09-14T04:48:54.878Z,100567.88
2022-09-14T04:51:24.870Z,100552.69
2022-09-14T04:53:55.079Z,100557.56
2022-09-14T04:56:24.012Z,100566.03
2022-09-14T04:58:55.085Z,100561.41
2022-09-14T05:01:25.681Z,100561.69
2022-09-14T05:03:54.127Z,100562.78
2022-09-14T05:06:23.607Z,100564.41
2022-09-14T05:08:53.532Z,100566.59
2022-09-14T05:11:22.986Z,100566.88
2022-09-14T05:13:50.994Z,100566.34
2022-09-14T05:16:22.508Z,100564.44
2022-09-14T05:18:51.742Z,100567.47
2022-09-14T05:21:21.716Z,100563.09
2022-09-14T05:23:54.047Z,100569.66
2022-09-14T05:26:22.097Z,100566.94
2022-09-14T05:28:52.682Z,100560.66
2022-09-14T05:31:23.050Z,100559.84
2022-09-14T05:33:51.106Z,100562.56
2022-09-14T05:36:19.221Z,100558.50
2022-09-14T05:38:46.928Z,100559.03
2022-09-14T05:41:16.395Z,100568.31
2022-09-14T05:43:44.389Z,100563.16
2022-09-14T05:46:13.960Z,100552.25
2022-09-14T05:48:43.726Z,100559.59
2022-09-14T05:51:17.037Z,100562.34
2022-09-14T05:53:48.184Z,100559.88
2022-09-14T05:56:16.093Z,100564.25
2022-09-14T05:58:44.671Z,100558.25
2022-09-14T06:01:15.186Z,100559.38
2022-09-14T06:03:45.418Z,100553.91
2022-09-14T06:06:14.654Z,100569.44
2022-09-14T06:08:42.835Z,100563.47
2022-09-14T06:11:12.646Z,100564.56
2022-09-14T06:13:40.730Z,100562.94
2022-09-14T06:16:10.797Z,100564.84
2022-09-14T06:18:40.423Z,100567.84
2022-09-14T06:21:10.794Z,100568.94
2022-09-14T06:23:38.499Z,100576.84
2022-09-14T06:26:06.653Z,100571.94
2022-09-14T06:28:35.456Z,100580.13
2022-09-14T06:31:04.418Z,100569.50
2022-09-14T06:33:32.930Z,100581.50
2022-09-14T06:36:02.504Z,100571.19
2022-09-14T06:38:31.743Z,100573.09
2022-09-14T06:41:00.949Z,100571.19
2022-09-14T06:43:30.654Z,100571.47
2022-09-14T06:46:00.072Z,100574.47
2022-09-14T06:48:28.341Z,100571.22
2022-09-14T06:50:56.018Z,100566.84
2022-09-14T06:53:24.047Z,100564.13
2022-09-14T06:55:54.229Z,100558.97
2022-09-14T06:58:21.959Z,100567.97
2022-09-14T07:00:49.578Z,100560.88
2022-09-14T07:03:17.271Z,100558.44
2022-09-14T07:05:45.050Z,100551.09
2022-09-14T07:08:12.692Z,100554.91
2022-09-14T07:10:40.392Z,100553.25
2022-09-14T07:13:09.413Z,100550.53
2022-09-14T07:15:37.027Z,100545.38
2022-09-14T07:18:04.937Z,100547.81
2022-09-14T07:20:34.638Z,100544.84
2022-09-14T07:23:02.287Z,100549.47
2022-09-14T07:25:29.998Z,100544.84
2022-09-14T07:27:58.023Z,100542.41
2022-09-14T07:30:28.094Z,100541.59
2022-09-14T07:32:55.789Z,100542.69
2022-09-14T07:35:23.562Z,100537.22
2022-09-14T07:37:51.219Z,100543.50
2022-09-14T07:40:18.932Z,100536.41
2022-09-14T07:42:55.592Z,100533.69
2022-09-14T07:45:25.627Z,100530.97
2022-09-14T07:47:54.609Z,100536.69
2022-09-14T07:50:22.447Z,100522.84
2022-09-14T07:52:51.797Z,100532.06
2022-09-14T07:55:19.941Z,100532.88
2022-09-14T07:57:56.258Z,100534.50
2022-09-14T08:00:25.219Z,100536.41
2022-09-14T08:02:55.290Z,100517.69
2022-09-14T08:05:23.262Z,100520.94
2022-09-14T08:07:55.263Z,100526.63
2022-09-14T08:10:23.025Z,100526.91
2022-09-14T08:12:52.131Z,100522.56
2022-09-14T08:15:19.933Z,100517.94
2022-09-14T08:17:47.724Z,100517.13
2022-09-14T08:20:17.288Z,100523.66
2022-09-14T08:22:45.163Z,100525.56
2022-09-14T08:25:13.312Z,100526.66
2022-09-14T08:27:40.963Z,100531.28
2022-09-14T08:30:10.192Z,100530.75
2022-09-14T08:32:37.860Z,100529.41
2022-09-14T08:35:07.152Z,100540.03
2022-09-14T08:37:36.179Z,100543.03
2022-09-14T08:40:04.315Z,100537.56
2022-09-14T08:42:32.393Z,100535.13
2022-09-14T08:45:09.005Z,100531.34
2022-09-14T08:47:39.769Z,100535.41
2022-09-14T08:50:13.793Z,100540.88
2022-09-14T08:52:45.171Z,100540.06
2022-09-14T08:55:25.132Z,100541.16
2022-09-14T08:58:00.877Z,100540.06
2022-09-14T09:00:35.231Z,100540.06
2022-09-14T09:03:33.005Z,100535.69
2022-09-14T09:06:13.891Z,100543.59
2022-09-14T09:08:54.543Z,100535.69
2022-09-14T09:11:25.458Z,100532.16
2022-09-14T09:13:55.897Z,100528.63
2022-09-14T09:16:26.003Z,100525.91
2022-09-14T09:18:59.680Z,100527.81
2022-09-14T09:21:30.853Z,100523.47
2022-09-14T09:24:09.969Z,100531.63
2022-09-14T09:26:37.603Z,100532.44
2022-09-14T09:29:06.695Z,100539.81
2022-09-14T09:31:36.825Z,100548.50
2022-09-14T09:34:04.761Z,100537.88
2022-09-14T09:36:35.821Z,100535.16
2022-09-14T09:39:05.885Z,100530.81
2022-09-14T09:41:43.858Z,100544.44
2022-09-14T09:44:11.919Z,100540.88
2022-09-14T09:46:46.358Z,100544.44
2022-09-14T09:49:22.530Z,100537.63
2022-09-14T09:51:51.865Z,100550.97
2022-09-14T09:54:25.863Z,100543.63
2022-09-14T09:56:56.006Z,100540.06
2022-09-14T09:59:30.248Z,100530.81
2022-09-14T10:02:15.045Z,100530.00
2022-09-14T10:04:58.459Z,100531.91
2022-09-14T10:07:26.962Z,100533.00
2022-09-14T10:10:05.602Z,100529.19
2022-09-14T10:12:33.811Z,100537.34
2022-09-14T10:15:17.157Z,100534.63
2022-09-14T10:17:56.790Z,100531.91
2022-09-14T10:20:26.431Z,100533.53
2022-09-14T10:22:54.542Z,100540.88
2022-09-14T10:25:27.908Z,100535.44
2022-09-14T10:28:00.613Z,100550.16
2022-09-14T10:30:32.977Z,100540.88
2022-09-14T10:33:02.715Z,100540.88
2022-09-14T10:35:40.934Z,100540.06
2022-09-14T10:38:24.718Z,100535.44
2022-09-14T10:41:05.288Z,100532.72
2022-09-14T10:43:44.247Z,100522.66
2022-09-14T10:46:18.136Z,100529.47
2022-09-14T10:49:01.097Z,100528.09
2022-09-14T10:51:50.371Z,100525.38
2022-09-14T10:54:31.607Z,100509.38
2022-09-14T10:57:13.057Z,100527.28
2022-09-14T10:59:49.763Z,100531.63
2022-09-14T11:02:52.980Z,100530.81
2022-09-14T11:05:24.805Z,100528.38
2022-09-14T11:08:20.884Z,100528.09
2022-09-14T11:11:08.109Z,100516.41
2022-09-14T11:13:50.339Z,100519.94
2022-09-14T11:16:38.412Z,100517.22
2022-09-14T11:19:18.263Z,100509.06
2022-09-14T11:21:53.033Z,100518.03
2022-09-14T11:24:25.866Z,100509.88
2022-09-14T11:27:02.651Z,100517.22
2022-09-14T11:29:36.042Z,100508.25
2022-09-14T11:32:20.861Z,100502.81
2022-09-14T11:34:54.964Z,100502.81
2022-09-14T11:37:30.641Z,100500.91
2022-09-14T11:40:07.866Z,100500.91
2022-09-14T11:42:41.983Z,100497.06
2022-09-14T11:45:19.979Z,100503.63
2022-09-14T11:47:54.184Z,100494.63
2022-09-14T11:50:24.964Z,100489.19
2022-09-14T11:53:02.387Z,100481.84
2022-09-14T11:55:30.702Z,100492.72
2022-09-14T11:57:59.926Z,100499.28
2022-09-14T12:01:02.427Z,100502.00
2022-09-14T12:04:07.890Z,100490.28
2022-09-14T12:06:54.090Z,100497.91
2022-09-14T12:09:53.671Z,100494.91
2022-09-14T12:12:40.870Z,100490.56
2022-09-14T12:15:33.219Z,100496.00
2022-09-14T12:18:23.005Z,100487.03
2022-09-14T12:21:00.780Z,100499.84
2022-09-14T12:23:32.951Z,100503.38
2022-09-14T12:26:36.794Z,100515.34
2022-09-14T12:29:27.357Z,100515.06
2022-09-14T12:32:05.088Z,100516.69
2022-09-14T12:34:34.753Z,100510.97
2022-09-14T12:37:31.344Z,100506.34
2022-09-14T12:40:28.884Z,100504.44
2022-09-14T12:42:56.383Z,100502.53
2022-09-14T12:45:48.936Z,100490.81
2022-09-14T12:48:50.981Z,100485.38
2022-09-14T12:51:29.229Z,100476.41
2022-09-14T12:54:03.375Z,100479.13
2022-09-14T12:56:35.783Z,100470.16
2022-09-14T12:59:10.767Z,100470.97
2022-09-14T13:01:50.265Z,100466.34
2022-09-14T13:04:24.619Z,100466.06
2022-09-14T13:06:56.888Z,100462.25
2022-09-14T13:09:26.847Z,100465.78
2022-09-14T13:11:57.261Z,100462.00
2022-09-14T13:14:28.388Z,100472.03
2022-09-14T13:16:57.935Z,100481.00
2022-09-14T13:19:27.522Z,100480.19
2022-09-14T13:21:58.140Z,100478.28
2022-09-14T13:24:32.498Z,100477.19
2022-09-14T13:27:03.029Z,100468.22
2022-09-14T13:29:31.289Z,100465.78
2022-09-14T13:32:03.718Z,100455.16
2022-09-14T13:34:35.495Z,100466.06
2022-09-14T13:37:06.032Z,100453.25
2022-09-14T13:39:35.940Z,100449.72
2022-09-14T13:42:04.358Z,100464.44
2022-09-14T13:44:35.547Z,100462.00
2022-09-14T13:47:06.663Z,100455.47
2022-09-14T13:49:53.861Z,100450.28
2022-09-14T13:52:59.931Z,100449.47
2022-09-14T13:55:27.378Z,100437.25
2022-09-14T13:58:16.947Z,100435.06
2022-09-14T14:00:57.065Z,100437.78
2022-09-14T14:03:33.817Z,100436.16
2022-09-14T14:06:16.961Z,100433.44
2022-09-14T14:08:45.985Z,100432.63
2022-09-14T14:11:13.659Z,100431.00
2022-09-14T14:13:41.620Z,100431.81
2022-09-14T14:16:18.031Z,100433.75
2022-09-14T14:18:52.339Z,100428.59
2022-09-14T14:21:33.363Z,100432.41
2022-09-14T14:24:27.848Z,100427.50
2022-09-14T14:26:57.486Z,100421.00
2022-09-14T14:29:26.333Z,100418.81
2022-09-14T14:31:56.820Z,100410.94
2022-09-14T14:34:27.405Z,100420.19
2022-09-14T14:36:55.873Z,100411.22
2022-09-14T14:39:26.407Z,100414.75
2022-09-14T14:41:54.284Z,100416.13
2022-09-14T14:44:24.879Z,100410.69
2022-09-14T14:46:52.803Z,100415.03
2022-09-14T14:49:20.918Z,100416.13
2022-09-14T14:51:48.882Z,100413.41
2022-09-14T14:54:18.602Z,100416.13
2022-09-14T14:56:49.051Z,100414.50
2022-09-14T14:59:26.358Z,100408.53
2022-09-14T15:01:54.961Z,100418.03
2022-09-14T15:04:22.664Z,100413.69
2022-09-14T15:06:50.770Z,100402.00
2022-09-14T15:09:20.481Z,100403.91
2022-09-14T15:11:50.368Z,100415.31
2022-09-14T15:14:22.117Z,100413.69
2022-09-14T15:16:55.085Z,100411.25
2022-09-14T15:19:22.814Z,100408.53
2022-09-14T15:21:50.530Z,100401.75
2022-09-14T15:24:18.184Z,100418.88
2022-09-14T15:26:45.867Z,100420.78
2022-09-14T15:29:17.646Z,100418.06
2022-09-14T15:31:45.353Z,100413.72
2022-09-14T15:34:13.014Z,100425.41
2022-09-14T15:36:43.476Z,100416.44
2022-09-14T15:39:13.652Z,100428.94
2022-09-14T15:41:42.418Z,100434.41
2022-09-14T15:44:11.550Z,100439.03
2022-09-14T15:46:41.236Z,100444.19
2022-09-14T15:49:12.644Z,100437.41
2022-09-14T15:51:43.579Z,100443.38
2022-09-14T15:54:12.010Z,100445.28
2022-09-14T15:56:39.924Z,100446.09
2022-09-14T15:59:08.615Z,100448.81
2022-09-14T16:01:37.730Z,100446.38
2022-09-14T16:04:11.615Z,100441.22
2022-09-14T16:06:40.213Z,100443.09
2022-09-14T16:09:10.661Z,100445.00
2022-09-14T16:11:39.712Z,100450.44
2022-09-14T16:14:08.880Z,100453.16
2022-09-14T16:16:37.657Z,100452.06
2022-09-14T16:19:08.556Z,100463.75
2022-09-14T16:21:36.704Z,100471.63
2022-09-14T16:24:06.492Z,100470.81
2022-09-14T16:26:37.169Z,100471.91
2022-09-14T16:29:06.247Z,100472.47
2022-09-14T16:31:36.061Z,100480.59
2022-09-14T16:34:08.103Z,100487.94
2022-09-14T16:36:38.420Z,100485.22
2022-09-14T16:39:10.436Z,100496.09
2022-09-14T16:41:40.511Z,100492.56
2022-09-14T16:44:08.922Z,100469.50
2022-09-14T16:46:36.582Z,100487.94
2022-09-14T16:49:05.637Z,100481.41
2022-09-14T16:51:35.117Z,100480.34
2022-09-14T16:54:02.932Z,100480.06
2022-09-14T16:56:32.531Z,100484.41
2022-09-14T16:59:01.489Z,100476.53
2022-09-14T17:01:30.944Z,100473.81
2022-09-14T17:04:03.659Z,100466.75
2022-09-14T17:06:33.172Z,100460.25
2022-09-14T17:09:06.289Z,100467.84
2022-09-14T17:11:35.699Z,100458.88
2022-09-14T17:14:03.690Z,100459.69
2022-09-14T17:16:31.694Z,100465.94
2022-09-14T17:19:02.231Z,100470.28
2022-09-14T17:21:33.446Z,100471.09
2022-09-14T17:24:04.336Z,100469.72
2022-09-14T17:26:32.485Z,100460.75
2022-09-14T17:29:01.586Z,100463.19
2022-09-14T17:31:31.783Z,100470.53
2022-09-14T17:34:02.831Z,100466.19
2022-09-14T17:36:30.664Z,100474.06
2022-09-14T17:39:01.867Z,100466.19
2022-09-14T17:41:32.477Z,100468.09
2022-09-14T17:44:01.270Z,100465.66
2022-09-14T17:46:29.752Z,100451.78
2022-09-14T17:48:59.308Z,100455.84
2022-09-14T17:51:29.067Z,100455.03
2022-09-14T17:53:59.186Z,100461.00
2022-09-14T17:56:28.614Z,100463.72
2022-09-14T17:59:04.818Z,100465.63
2022-09-14T18:01:33.287Z,100464.53
2022-09-14T18:04:03.335Z,100464.00
2022-09-14T18:06:34.454Z,100462.38
2022-09-14T18:09:04.693Z,100466.72
2022-09-14T18:11:33.006Z,100476.78
2022-09-14T18:14:03.506Z,100472.44
2022-09-14T18:16:31.809Z,100474.63
2022-09-14T18:18:59.774Z,100472.75
2022-09-14T18:21:27.762Z,100481.97
2022-09-14T18:23:56.103Z,100486.59
2022-09-14T18:26:25.161Z,100495.84
2022-09-14T18:28:56.062Z,100499.66
2022-09-14T18:31:25.902Z,100496.13
2022-09-14T18:33:56.147Z,100499.94
2022-09-14T18:36:23.868Z,100493.69
2022-09-14T18:38:53.020Z,100489.94
2022-09-14T18:41:21.919Z,100502.94
2022-09-14T18:43:50.873Z,100499.41
2022-09-14T18:46:19.838Z,100500.50
2022-09-14T18:48:51.761Z,100498.06
2022-09-14T18:51:19.944Z,100502.69
2022-09-14T18:53:47.821Z,100499.97
2022-09-14T18:56:17.545Z,100501.06
2022-09-14T18:58:46.705Z,100520.38
2022-09-14T19:01:15.445Z,100514.94
2022-09-14T19:03:44.094Z,100517.94
2022-09-14T19:06:15.378Z,100514.41
2022-09-14T19:08:43.603Z,100514.69
2022-09-14T19:11:13.132Z,100519.59
2022-09-14T19:13:41.300Z,100516.88
2022-09-14T19:16:11.058Z,100517.97
2022-09-14T19:18:39.657Z,100522.59
2022-09-14T19:21:08.597Z,100526.69
2022-09-14T19:23:38.380Z,100523.16
2022-09-14T19:26:07.632Z,100526.94
2022-09-14T19:28:36.475Z,100531.56
2022-09-14T19:31:06.965Z,100532.66
2022-09-14T19:33:34.700Z,100534.56
2022-09-14T19:36:06.466Z,100536.47
2022-09-14T19:38:34.421Z,100534.84
2022-09-14T19:41:03.596Z,100529.97
2022-09-14T19:43:32.679Z,100531.31
2022-09-14T19:46:02.952Z,100530.50
2022-09-14T19:48:30.761Z,100526.16
2022-09-14T19:51:00.511Z,100533.78
2022-09-14T19:53:28.811Z,100529.16
2022-09-14T19:55:56.517Z,100526.72
2022-09-14T19:58:28.599Z,100527.53
2022-09-14T20:00:57.070Z,100536.25
2022-09-14T20:03:25.470Z,100537.06
2022-09-14T20:06:00.363Z,100542.75
2022-09-14T20:08:28.062Z,100549.28
2022-09-14T20:10:56.108Z,100536.00
2022-09-14T20:13:25.150Z,100540.63
2022-09-14T20:15:52.874Z,100562.88
2022-09-14T20:18:20.585Z,100556.09
2022-09-14T20:20:48.246Z,100553.38
2022-09-14T20:23:15.934Z,100559.09
2022-09-14T20:25:43.634Z,100562.91
2022-09-14T20:28:11.299Z,100562.09
2022-09-14T20:30:40.758Z,100561.00
2022-09-14T20:33:08.419Z,100565.06
2022-09-14T20:35:36.855Z,100567.78
2022-09-14T20:38:04.780Z,100576.75
2022-09-14T20:40:33.009Z,100566.16
2022-09-14T20:43:00.705Z,100576.22
2022-09-14T20:45:28.387Z,100580.03
2022-09-14T20:47:57.350Z,100580.03
2022-09-14T20:50:25.086Z,100584.66
2022-09-14T20:52:52.706Z,100591.19
2022-09-14T20:55:20.616Z,100594.94
2022-09-14T20:57:48.280Z,100590.59
2022-09-14T21:00:16.900Z,100588.97
2022-09-14T21:02:44.611Z,100597.13
2022-09-14T21:05:13.703Z,100589.25
2022-09-14T21:07:41.338Z,100595.78
2022-09-14T21:10:09.879Z,100598.50
2022-09-14T21:12:37.549Z,100602.84
2022-09-14T21:15:05.794Z,100607.47
2022-09-14T21:17:34.870Z,100614.00
2022-09-14T21:20:02.949Z,100611.53
2022-09-14T21:22:32.546Z,100608.81
2022-09-14T21:25:00.235Z,100609.09
2022-09-14T21:27:27.939Z,100613.72
2022-09-14T21:29:55.646Z,100613.19
2022-09-14T21:32:23.636Z,100608.84
2022-09-14T21:34:51.394Z,100608.84
2022-09-14T21:37:19.039Z,100605.03
2022-09-14T21:39:48.057Z,100615.91
2022-09-14T21:42:15.756Z,100608.03
2022-09-14T21:44:43.423Z,100613.44
2022-09-14T21:47:11.097Z,100620.78
2022-09-14T21:49:38.731Z,100619.16
2022-09-14T21:52:06.375Z,100619.97
2022-09-14T21:54:34.109Z,100617.53
2022-09-14T21:57:03.119Z,100614.81
2022-09-14T21:59:30.794Z,100617.81
2022-09-14T22:01:58.514Z,100612.09
2022-09-14T22:04:26.848Z,100615.63
2022-09-14T22:06:55.115Z,100614.00
2022-09-14T22:09:25.361Z,100619.97
2022-09-14T22:11:53.380Z,100627.59
2022-09-14T22:14:24.966Z,100622.44
2022-09-14T22:16:53.151Z,100628.69
2022-09-14T22:19:23.313Z,100624.31
2022-09-14T22:21:51.706Z,100623.78
2022-09-14T22:24:22.079Z,100620.25
2022-09-14T22:26:50.275Z,100614.31
2022-09-14T22:29:19.319Z,100634.66
2022-09-14T22:31:48.639Z,100630.31
2022-09-14T22:34:17.157Z,100631.41
2022-09-14T22:36:46.031Z,100641.19
2022-09-14T22:39:14.158Z,100635.19
2022-09-14T22:41:41.904Z,100640.63
2022-09-14T22:44:10.282Z,100634.13
2022-09-14T22:46:37.946Z,100645.53
2022-09-14T22:49:06.941Z,100646.59
2022-09-14T22:51:34.560Z,100643.06
2022-09-14T22:54:02.319Z,100643.88
2022-09-14T22:56:32.515Z,100647.69
2022-09-14T22:59:02.003Z,100644.97
2022-09-14T23:01:31.466Z,100648.50
2022-09-14T23:04:01.099Z,100640.38
2022-09-14T23:06:31.726Z,100651.53
2022-09-14T23:09:00.327Z,100649.09
2022-09-14T23:11:28.658Z,100652.63
2022-09-14T23:13:57.729Z,100652.06
2022-09-14T23:16:28.043Z,100651.53
2022-09-14T23:18:58.351Z,100659.69
2022-09-14T23:21:26.847Z,100660.75
2022-09-14T23:23:57.352Z,100650.16
2022-09-14T23:26:25.635Z,100638.50
2022-09-14T23:28:54.556Z,100642.84
2022-09-14T23:31:23.063Z,100638.50
2022-09-14T23:33:52.093Z,100636.59
2022-09-14T23:36:22.033Z,100645.81
2022-09-14T23:38:50.483Z,100642.03
2022-09-14T23:41:22.087Z,100645.00
2022-09-14T23:43:50.035Z,100645.28
2022-09-14T23:46:18.143Z,100652.63
2022-09-14T23:48:46.020Z,100646.38
2022-09-14T23:51:14.423Z,100655.59
2022-09-14T23:53:43.105Z,100651.25
2022-09-14T23:56:11.809Z,100651.25
2022-09-14T23:58:42.385Z,100649.63
